createdAt,value
2022-10-09T00:04:51.436Z,69
2022-10-09T00:19:53.311Z,51
2022-10-09T00:34:55.140Z,46
2022-10-09T00:49:56.954Z,29
2022-10-09T00:56:13.235Z,23
2022-10-09T01:11:15.101Z,9
2022-10-09T01:26:16.934Z,2
2022-10-09T01:41:18.810Z,0
2022-10-09T01:56:20.650Z,0
2022-10-09T02:11:22.502Z,0
2022-10-09T02:26:24.332Z,0
2022-10-09T02:41:26.128Z,0
2022-10-09T02:56:27.979Z,0
2022-10-09T03:11:29.803Z,0
2022-10-09T03:26:31.655Z,0
2022-10-09T03:41:33.487Z,0
2022-10-09T03:56:35.306Z,0
2022-10-09T04:11:37.154Z,0
2022-10-09T04:26:39.032Z,0
2022-10-09T04:41:40.872Z,0
2022-10-09T04:56:42.721Z,0
2022-10-09T05:11:44.550Z,0
2022-10-09T05:26:46.402Z,0
2022-10-09T05:41:48.223Z,0
2022-10-09T05:56:50.005Z,0
2022-10-09T06:11:51.825Z,0
2022-10-09T06:26:53.661Z,0
2022-10-09T06:41:55.520Z,0
2022-10-09T06:56:57.355Z,0
2022-10-09T07:11:59.161Z,0
2022-10-09T07:27:00.985Z,0
2022-10-09T07:42:02.820Z,0
2022-10-09T07:57:04.666Z,0
2022-10-09T08:12:06.498Z,0
2022-10-09T08:27:08.313Z,0
2022-10-09T08:42:10.166Z,0
2022-10-09T08:57:11.987Z,0
2022-10-09T09:12:13.820Z,0
2022-10-09T09:27:15.683Z,0
2022-10-09T09:42:17.628Z,0
2022-10-09T09:57:21.818Z,0
2022-10-09T10:12:23.976Z,0
2022-10-09T10:27:25.829Z,0
2022-10-09T10:42:27.649Z,0
2022-10-09T10:57:29.503Z,0
2022-10-09T11:12:47.224Z,0
2022-10-09T11:27:49.838Z,0
2022-10-09T11:42:51.690Z,0
2022-10-09T11:57:53.613Z,0
2022-10-09T12:12:55.434Z,0
2022-10-09T12:27:57.254Z,0
2022-10-09T12:42:59.071Z,0
2022-10-09T12:58:00.961Z,0
2022-10-09T13:13:02.802Z,0
2022-10-09T13:28:04.758Z,0
2022-10-09T13:43:06.636Z,0
2022-10-09T13:58:08.481Z,1
2022-10-09T14:13:10.361Z,4
2022-10-09T14:28:12.262Z,7
2022-10-09T14:43:14.176Z,17
2022-10-09T14:58:16.008Z,23
2022-10-09T15:13:17.826Z,29
2022-10-09T15:28:19.710Z,33
2022-10-09T15:43:21.610Z,35
2022-10-09T15:58:23.435Z,37
2022-10-09T16:13:25.265Z,40
2022-10-09T16:28:27.176Z,43
2022-10-09T16:43:29.050Z,45
2022-10-09T16:58:30.901Z,46
2022-10-09T17:13:32.772Z,47
2022-10-09T17:28:34.724Z,48
2022-10-09T17:43:36.589Z,50
2022-10-09T17:58:38.458Z,51
2022-10-09T18:13:40.355Z,52
2022-10-09T18:28:44.744Z,87
2022-10-09T18:43:49.447Z,72
2022-10-09T18:58:51.285Z,87
2022-10-09T19:13:53.129Z,87
2022-10-09T19:28:54.996Z,72
2022-10-09T19:43:56.838Z,77
2022-10-09T19:58:58.663Z,73
2022-10-09T20:14:00.519Z,75
2022-10-09T20:29:02.340Z,78
2022-10-09T20:41:38.703Z,75
2022-10-09T20:56:40.570Z,78
2022-10-09T21:11:42.404Z,79
2022-10-09T21:26:44.241Z,88
2022-10-09T21:41:46.152Z,104
2022-10-09T21:56:48.048Z,106
2022-10-09T22:11:49.885Z,105
2022-10-09T22:26:51.743Z,100
2022-10-09T22:41:53.589Z,93
2022-10-09T22:56:55.414Z,101
2022-10-09T23:11:57.257Z,105
2022-10-09T23:26:59.133Z,94
2022-10-09T23:42:00.968Z,90
2022-10-09T23:57:02.797Z,84
